Oologah, OK (74053)

17:06 CST le 02 Mars 2015 (GMT -0600)
Westwood Addition | Change Station
CLOSE
Current Station
Stations météorologiques personnelles
Location: Claremore, OK
Altitude: 660 ft
Stations météo à proximité

Alt. 660 ft 36.31 °N, 95.64 °W | Updated 26 seconds ago

Nuageux
Nuageux
37.0 ° F
Paraît 37 ° F
N
0.0
Vent Variable Vent de Sud
Gusts 0.0 mph

Aujourd'hui
Haut(e) -- | Bas -- ° F
--% Risque de précip.
Hier
Haut(e) -- | Bas -- ° F
Precip. -- pouce
6:52 AM 6:18 PM
Lune gibbeuse croissante, 93% visible
Pression 30.27 pouce
Visibilité 7.0 Miles terrestres
Nuages Ciel dégagé
Refroidissement éolien 37 ° F
Point de rosée 32 ° F
Humidité 82%
Précipitations 0.11 pouce
Profondeur de la couche neigeuse Non disponible.
UV 1 sur 12
Pollen 6.60 sur 12
Qualité de l'air Non disponible.
Flu Activity Non disponible.
METAR KGCM 022255Z AUTO 15006KT 7SM CLR 02/00 A3027 RMK AO2

More Conditions Fewer Conditions

Pression 30.27 pouce
Visibilité 7.0 Miles terrestres
Nuages Ciel dégagé
Refroidissement éolien 37 ° F
Point de rosée 32 ° F
Humidité 82%
Précipitations 0.11 pouce
Profondeur de la couche neigeuse Non disponible.
UV 1 sur 12
Pollen 6.60 sur 12
Qualité de l'air Non disponible.
Flu Activity Non disponible.
METAR KGCM 022255Z AUTO 15006KT 7SM CLR 02/00 A3027 RMK AO2

More Conditions Fewer Conditions

10-Day Weather Forecast

Almanac

Astronomie

Mar. 02, 2015 Lever Coucher
Temps réel
Crépuscule civil
Crépuscule nautique
Crépuscule astronomique
Lune
Durée de lumière visible
Longueur du jour
Tomorrow will be .
, % of the Moon is Illuminated

Extrêmes aujourd'hui

State Highs State Lows

Community

WunderPhotos

Upload Photos

1,801,992 Photos téléchargées !

WunderBlogs® & News

Nearby

Qualité de l'air

  Qualité de l'air Indice de la qualité de l'air Polluant
Not available.

Épaisseur de neige

Station Depth Altitude

Activité sismique

Ville Distance Mag. Time & Date
Minimum magnitude displayed is 2.5.

Températures des eaux côtières

Lieu Température

Stations météo à proximité